createdAt,value
2023-09-23T00:01:48.240Z,12.50
2023-09-23T00:06:50.660Z,12.50
2023-09-23T00:11:52.541Z,12.40
2023-09-23T00:16:54.413Z,12.30
2023-09-23T00:21:57.172Z,12.40
2023-09-23T00:27:01.039Z,12.40
2023-09-23T00:32:03.895Z,12.40
2023-09-23T00:37:05.856Z,12.30
2023-09-23T00:42:11.274Z,12.30
2023-09-23T00:47:15.005Z,12.40
2023-09-23T00:52:18.097Z,12.40
2023-09-23T00:57:20.121Z,12.40
2023-09-23T01:02:22.056Z,12.50
2023-09-23T01:07:23.937Z,12.40
2023-09-23T01:12:26.391Z,12.50
2023-09-23T01:17:28.273Z,12.50
2023-09-23T01:22:31.050Z,12.60
2023-09-23T01:27:35.615Z,12.60
2023-09-23T01:32:47.130Z,12.60
2023-09-23T01:37:52.270Z,12.60
2023-09-23T01:42:54.494Z,12.60
2023-09-23T01:47:58.478Z,12.60
2023-09-23T01:53:01.851Z,12.70
2023-09-23T01:58:04.061Z,12.70
2023-09-23T02:03:06.035Z,12.80
2023-09-23T02:08:08.036Z,12.70
2023-09-23T02:13:10.193Z,12.70
2023-09-23T02:18:12.173Z,12.70
2023-09-23T02:23:16.211Z,12.70
2023-09-23T02:28:19.152Z,12.70
2023-09-23T02:33:20.947Z,12.80
2023-09-23T02:38:22.773Z,12.80
2023-09-23T02:43:24.600Z,12.80
2023-09-23T02:48:26.460Z,12.80
2023-09-23T02:53:28.553Z,12.80
2023-09-23T02:58:30.674Z,12.80
2023-09-23T03:03:35.782Z,12.80
2023-09-23T03:08:40.479Z,12.80
2023-09-23T03:13:42.887Z,12.90
2023-09-23T03:19:11.488Z,12.80
2023-09-23T03:24:14.536Z,12.90
2023-09-23T03:29:16.649Z,12.90
2023-09-23T03:34:19.960Z,12.90
2023-09-23T03:39:23.122Z,12.90
2023-09-23T03:44:24.949Z,12.90
2023-09-23T03:49:26.755Z,12.90
2023-09-23T03:54:29.526Z,12.90
2023-09-23T03:59:32.882Z,12.90
2023-09-23T04:04:38.861Z,12.80
2023-09-23T04:09:40.669Z,12.90
2023-09-23T04:14:42.668Z,12.90
2023-09-23T04:19:44.462Z,12.90
2023-09-23T04:24:46.911Z,12.80
2023-09-23T04:29:48.790Z,12.80
2023-09-23T04:34:50.732Z,12.80
2023-09-23T04:39:52.624Z,12.80
2023-09-23T04:44:54.399Z,12.80
2023-09-23T04:49:58.604Z,12.80
2023-09-23T04:55:00.702Z,12.80
2023-09-23T05:00:02.540Z,12.80
2023-09-23T05:05:05.984Z,12.80
2023-09-23T05:10:08.523Z,12.80
2023-09-23T05:15:11.293Z,12.80
2023-09-23T05:20:17.405Z,12.80
2023-09-23T05:25:19.476Z,12.90
2023-09-23T05:30:22.986Z,12.80
2023-09-23T05:35:25.571Z,12.90
2023-09-23T05:40:27.886Z,12.80
2023-09-23T05:45:31.072Z,12.80
2023-09-23T05:50:33.202Z,12.70
2023-09-23T05:55:35.230Z,12.70
2023-09-23T06:00:37.124Z,12.70
2023-09-23T06:05:40.112Z,12.70
2023-09-23T06:10:42.072Z,12.70
2023-09-23T06:15:43.844Z,12.70
2023-09-23T06:20:45.611Z,12.80
2023-09-23T06:25:54.167Z,12.80
2023-09-23T06:30:56.399Z,12.90
2023-09-23T06:36:05.752Z,12.90
2023-09-23T06:41:07.617Z,12.80
2023-09-23T06:46:09.650Z,12.90
2023-09-23T06:51:11.501Z,12.90
2023-09-23T06:56:13.436Z,12.90
2023-09-23T07:01:15.666Z,12.90
2023-09-23T07:06:17.504Z,12.90
2023-09-23T07:11:19.298Z,13.00
2023-09-23T07:16:21.279Z,13.00
2023-09-23T07:21:23.104Z,13.00
2023-09-23T07:26:25.032Z,13.10
2023-09-23T07:31:27.037Z,13.30
2023-09-23T07:36:28.962Z,13.40
2023-09-23T07:41:30.976Z,13.60
2023-09-23T07:46:33.634Z,13.80
2023-09-23T07:51:36.869Z,13.90
2023-09-23T07:56:38.668Z,13.80
2023-09-23T08:01:40.588Z,13.70
2023-09-23T08:06:42.505Z,13.50
2023-09-23T08:11:44.393Z,13.40
2023-09-23T08:16:46.131Z,13.30
2023-09-23T08:21:47.876Z,13.20
2023-09-23T08:26:49.645Z,13.50
2023-09-23T08:31:52.273Z,14.00
2023-09-23T08:36:54.171Z,14.20
2023-09-23T08:41:58.243Z,14.20
2023-09-23T08:47:00.642Z,14.00
2023-09-23T08:52:04.602Z,13.90
2023-09-23T08:57:07.053Z,13.80
2023-09-23T09:02:11.660Z,13.80
2023-09-23T09:07:13.519Z,14.00
2023-09-23T09:12:17.446Z,14.20
2023-09-23T09:17:22.531Z,13.80
2023-09-23T09:22:24.324Z,13.50
2023-09-23T09:27:26.079Z,13.70
2023-09-23T09:32:31.358Z,14.20
2023-09-23T09:37:35.044Z,14.70
2023-09-23T09:42:41.120Z,15.00
2023-09-23T09:47:45.929Z,15.00
2023-09-23T09:52:47.727Z,15.10
2023-09-23T09:57:49.537Z,15.20
2023-09-23T10:02:58.105Z,15.40
2023-09-23T10:08:00.817Z,15.40
2023-09-23T10:13:23.506Z,15.20
2023-09-23T10:18:25.698Z,15.40
2023-09-23T10:23:27.822Z,15.70
2023-09-23T10:28:31.994Z,16.00
2023-09-23T10:33:38.247Z,16.00
2023-09-23T10:38:40.151Z,16.10
2023-09-23T10:43:45.749Z,16.10
2023-09-23T10:48:52.502Z,16.00
2023-09-23T10:53:57.821Z,16.10
2023-09-23T10:59:05.831Z,16.10
2023-09-23T11:04:10.861Z,16.10
2023-09-23T11:09:19.245Z,16.00
2023-09-23T11:14:26.227Z,16.20
2023-09-23T11:19:32.470Z,16.30
2023-09-23T11:24:48.015Z,16.20
2023-09-23T11:29:57.435Z,16.40
2023-09-23T11:35:02.725Z,16.30
2023-09-23T11:40:12.188Z,16.20
2023-09-23T11:45:14.384Z,16.10
2023-09-23T11:50:17.117Z,15.80
2023-09-23T11:55:20.586Z,15.70
2023-09-23T12:00:24.480Z,15.70
2023-09-23T12:05:30.898Z,15.70
2023-09-23T12:10:32.996Z,15.80
2023-09-23T12:15:37.666Z,16.00
2023-09-23T12:20:39.616Z,16.20
2023-09-23T12:25:41.695Z,16.80
2023-09-23T12:30:43.612Z,17.00
2023-09-23T12:35:46.124Z,16.90
2023-09-23T12:40:48.166Z,16.70
2023-09-23T12:45:51.411Z,16.50
2023-09-23T12:50:53.209Z,16.80
2023-09-23T12:55:55.873Z,16.90
2023-09-23T13:00:57.723Z,16.70
2023-09-23T13:06:00.704Z,16.50
2023-09-23T13:11:02.540Z,16.50
2023-09-23T13:16:05.647Z,16.40
2023-09-23T13:21:08.002Z,16.40
2023-09-23T13:26:09.823Z,16.80
2023-09-23T13:31:11.736Z,17.00
2023-09-23T13:36:14.738Z,16.70
2023-09-23T13:41:16.619Z,16.50
2023-09-23T13:46:18.575Z,16.30
2023-09-23T13:51:20.609Z,16.30
2023-09-23T13:56:22.869Z,16.20
2023-09-23T14:01:25.092Z,16.00
2023-09-23T14:06:26.837Z,16.00
2023-09-23T14:11:29.598Z,15.90
2023-09-23T14:16:33.255Z,15.90
2023-09-23T14:21:35.151Z,15.80
2023-09-23T14:26:39.131Z,15.80
2023-09-23T14:31:40.913Z,15.70
2023-09-23T14:36:43.947Z,15.50
2023-09-23T14:41:46.123Z,15.40
2023-09-23T14:46:48.102Z,15.30
2023-09-23T14:51:50.566Z,15.30
2023-09-23T14:56:52.357Z,15.20
2023-09-23T15:01:54.372Z,15.30
2023-09-23T15:07:00.180Z,15.40
2023-09-23T15:12:02.275Z,15.40
2023-09-23T15:17:04.128Z,15.40
2023-09-23T15:22:06.037Z,15.40
2023-09-23T15:27:09.679Z,15.30
2023-09-23T15:32:12.394Z,15.20
2023-09-23T15:37:14.543Z,15.20
2023-09-23T15:42:16.485Z,15.10
2023-09-23T15:47:19.543Z,14.90
2023-09-23T15:52:22.788Z,14.70
2023-09-23T15:57:24.691Z,14.60
2023-09-23T16:02:26.571Z,14.40
2023-09-23T16:07:29.566Z,14.30
2023-09-23T16:12:31.513Z,14.20
2023-09-23T16:17:33.565Z,14.20
2023-09-23T16:22:35.503Z,14.10
2023-09-23T16:27:41.595Z,14.20
2023-09-23T16:32:43.428Z,14.10
2023-09-23T16:37:45.342Z,14.10
2023-09-23T16:42:47.831Z,14.00
2023-09-23T16:47:51.100Z,14.00
2023-09-23T16:52:54.245Z,13.90
2023-09-23T16:57:56.630Z,13.80
2023-09-23T17:02:58.783Z,13.70
2023-09-23T17:08:00.937Z,13.60
2023-09-23T17:13:02.790Z,13.60
2023-09-23T17:18:04.903Z,13.40
2023-09-23T17:23:07.358Z,13.30
2023-09-23T17:28:09.191Z,13.20
2023-09-23T17:33:12.302Z,13.10
2023-09-23T17:38:14.250Z,12.90
2023-09-23T17:43:16.709Z,12.80
2023-09-23T17:48:18.651Z,12.70
2023-09-23T17:53:20.534Z,12.50
2023-09-23T17:58:22.379Z,12.40
2023-09-23T18:03:26.365Z,12.30
2023-09-23T18:08:28.316Z,12.20
2023-09-23T18:13:30.258Z,12.10
2023-09-23T18:18:32.226Z,11.90
2023-09-23T18:23:34.427Z,11.90
2023-09-23T18:28:36.883Z,11.90
2023-09-23T18:33:38.824Z,11.80
2023-09-23T18:38:40.946Z,11.70
2023-09-23T18:43:43.888Z,11.60
2023-09-23T18:48:45.881Z,11.60
2023-09-23T18:53:48.097Z,11.50
2023-09-23T18:58:50.105Z,11.50
2023-09-23T19:03:53.024Z,11.40
2023-09-23T19:08:55.309Z,11.30
2023-09-23T19:13:58.357Z,11.30
2023-09-23T19:19:00.138Z,11.30
2023-09-23T19:24:02.326Z,11.20
2023-09-23T19:29:04.337Z,11.20
2023-09-23T19:34:08.559Z,11.10
2023-09-23T19:39:13.376Z,11.10
2023-09-23T19:44:15.440Z,11.00
2023-09-23T19:49:18.106Z,11.10
2023-09-23T19:54:26.564Z,11.00
2023-09-23T19:59:28.658Z,10.90
2023-09-23T20:04:32.406Z,10.80
2023-09-23T20:09:34.395Z,10.80
2023-09-23T20:14:38.438Z,10.90
2023-09-23T20:19:40.278Z,10.70
2023-09-23T20:24:42.069Z,10.60
2023-09-23T20:29:59.806Z,10.60
2023-09-23T20:35:10.491Z,10.60
2023-09-23T20:40:14.024Z,10.60
2023-09-23T20:45:16.000Z,10.50
2023-09-23T20:50:18.011Z,10.50
2023-09-23T20:55:20.102Z,10.40
2023-09-23T21:00:23.004Z,10.50
2023-09-23T21:05:24.944Z,10.40
2023-09-23T21:10:26.771Z,10.30
2023-09-23T21:15:29.605Z,10.30
2023-09-23T21:20:31.789Z,10.10
2023-09-23T21:25:33.653Z,10.20
2023-09-23T21:30:37.653Z,10.00
2023-09-23T21:35:40.759Z,10.00
2023-09-23T21:40:43.926Z,10.00
2023-09-23T21:45:45.815Z,9.90
2023-09-23T21:50:59.089Z,9.90
2023-09-23T21:56:04.090Z,9.90
2023-09-23T22:01:08.567Z,9.90
2023-09-23T22:06:11.213Z,10.00
2023-09-23T22:11:13.391Z,9.90
2023-09-23T22:16:15.649Z,9.90
2023-09-23T22:21:19.111Z,9.80
2023-09-23T22:26:21.040Z,9.70
2023-09-23T22:31:27.810Z,9.70
2023-09-23T22:36:33.789Z,9.60
2023-09-23T22:41:35.972Z,9.50
2023-09-23T22:46:39.669Z,9.50
2023-09-23T22:51:42.703Z,9.40
2023-09-23T22:56:46.264Z,9.50
2023-09-23T23:01:48.143Z,9.50
2023-09-23T23:06:51.406Z,9.40
2023-09-23T23:11:53.350Z,9.40
2023-09-23T23:16:55.292Z,9.40
2023-09-23T23:21:57.037Z,9.30
2023-09-23T23:26:59.711Z,9.30
2023-09-23T23:32:03.724Z,9.30
2023-09-23T23:37:07.122Z,9.30
2023-09-23T23:42:11.182Z,9.20
2023-09-23T23:47:13.425Z,9.20
2023-09-23T23:52:16.760Z,9.20
2023-09-23T23:57:18.654Z,9.20
